Time;durP1;ratioP1;P1;durP2;ratioP2;P2;SDS_P1;SDS_P2;PMS_P1;PMS_P2;Temp;Humidity;BMP_temperature;BMP_pressure;BME280_temperature;BME280_humidity;BME280_pressure;Samples;Min_cycle;Max_cycle;Signal;HPM_P1;HPM_P2
2021/12/27 00:00:26;;;;;;;6.25;5.72;;;18.20;22.00;;;;;;5055430;28;20491;-59
2021/12/27 00:02:59;;;;;;;6.72;5.60;;;18.30;22.00;;;;;;5055215;28;20193;-60
2021/12/27 00:05:26;;;;;;;6.63;5.85;;;18.30;22.00;;;;;;5055442;28;20204;-60
2021/12/27 00:07:54;;;;;;;5.80;5.30;;;18.20;22.00;;;;;;5046460;28;20677;-60
2021/12/27 00:10:22;;;;;;;5.95;5.35;;;18.20;22.00;;;;;;5054871;28;20480;-60
2021/12/27 00:12:50;;;;;;;5.90;5.30;;;18.20;22.00;;;;;;5054773;28;20235;-60
2021/12/27 00:15:18;;;;;;;5.53;5.03;;;18.10;21.90;;;;;;5054362;28;20205;-59
2021/12/27 00:17:47;;;;;;;5.70;5.10;;;18.10;21.90;;;;;;5054945;28;20216;-60
2021/12/27 00:20:18;;;;;;;5.30;4.75;;;18.10;21.90;;;;;;5055393;28;20201;-60
2021/12/27 00:22:46;;;;;;;5.28;4.78;;;18.10;21.90;;;;;;5054869;28;20216;-60
2021/12/27 00:25:15;;;;;;;4.95;4.45;;;18.00;21.80;;;;;;5054414;28;20216;-60
2021/12/27 00:27:43;;;;;;;4.80;4.35;;;18.00;21.80;;;;;;5055826;28;20276;-60
2021/12/27 00:30:13;;;;;;;5.13;4.30;;;18.00;21.80;;;;;;5054137;28;20205;-60
2021/12/27 00:32:43;;;;;;;4.75;4.28;;;18.00;21.80;;;;;;5054785;28;20232;-60
2021/12/27 00:35:12;;;;;;;4.55;4.10;;;18.00;21.80;;;;;;5051001;28;20323;-60
2021/12/27 00:37:41;;;;;;;5.13;4.63;;;18.00;21.80;;;;;;5054688;28;20205;-60
2021/12/27 00:40:12;;;;;;;5.00;4.50;;;17.90;21.80;;;;;;5054838;28;20480;-60
2021/12/27 00:42:40;;;;;;;5.03;4.53;;;17.90;21.80;;;;;;5055446;28;20236;-60
2021/12/27 00:45:10;;;;;;;5.15;4.65;;;17.90;21.80;;;;;;5054725;28;20216;-60
2021/12/27 00:47:37;;;;;;;4.63;4.20;;;17.90;21.80;;;;;;5054621;28;20323;-59
2021/12/27 00:50:05;;;;;;;5.20;4.70;;;17.90;21.80;;;;;;5054198;28;20205;-60
2021/12/27 00:52:35;;;;;;;5.28;4.78;;;17.90;21.80;;;;;;5054526;28;20511;-62
2021/12/27 00:55:05;;;;;;;5.13;4.57;;;17.80;21.70;;;;;;5053935;28;20240;-60
2021/12/27 00:57:32;;;;;;;4.75;4.25;;;17.80;21.70;;;;;;5054610;28;20515;-59
2021/12/27 00:59:59;;;;;;;4.40;4.00;;;17.80;21.70;;;;;;5054777;28;20627;-60
2021/12/27 01:02:27;;;;;;;4.75;4.35;;;17.80;21.70;;;;;;5054041;28;20197;-60
2021/12/27 01:04:54;;;;;;;4.50;4.10;;;17.80;21.70;;;;;;5054675;28;20220;-60
2021/12/27 01:07:21;;;;;;;4.47;4.07;;;17.70;21.60;;;;;;5054538;28;20208;-59
2021/12/27 01:10:02;;;;;;;4.65;4.25;;;17.70;21.60;;;;;;5054617;28;20209;-59
2021/12/27 01:12:35;;;;;;;4.82;4.35;;;17.70;21.60;;;;;;5055146;28;20232;-60
2021/12/27 01:15:33;;;;;;;4.60;4.13;;;17.70;21.60;;;;;;5054993;28;20208;-60
2021/12/27 01:17:59;;;;;;;4.72;4.22;;;17.60;21.60;;;;;;5054870;28;20564;-60
2021/12/27 01:20:26;;;;;;;4.50;4.10;;;17.60;21.60;;;;;;5055022;28;20209;-60
2021/12/27 01:22:55;;;;;;;4.50;4.10;;;17.60;21.60;;;;;;5054721;28;20201;-59
2021/12/27 01:25:23;;;;;;;4.60;4.20;;;17.60;21.60;;;;;;5054890;28;20487;-60
2021/12/27 01:27:52;;;;;;;4.78;4.28;;;17.60;21.60;;;;;;5048080;28;20201;-60
2021/12/27 01:30:20;;;;;;;4.60;4.20;;;17.60;21.60;;;;;;5034718;28;20259;-60
2021/12/27 01:32:51;;;;;;;4.30;3.90;;;17.50;21.50;;;;;;5034544;28;20230;-60
2021/12/27 01:35:19;;;;;;;4.45;4.05;;;17.50;21.50;;;;;;5034498;28;20205;-59
2021/12/27 01:37:46;;;;;;;4.53;4.13;;;17.50;21.50;;;;;;5034517;28;20229;-59
2021/12/27 01:40:15;;;;;;;4.22;3.83;;;17.50;21.50;;;;;;5034458;28;20205;-60
2021/12/27 01:43:07;;;;;;;4.50;4.10;;;17.40;21.40;;;;;;5036187;28;20202;-59
2021/12/27 01:45:36;;;;;;;4.82;3.85;;;17.40;21.40;;;;;;5038184;28;20299;-60
2021/12/27 01:48:06;;;;;;;4.88;4.38;;;17.40;21.40;;;;;;5037641;28;20214;-60
2021/12/27 01:50:34;;;;;;;4.47;4.07;;;17.40;21.40;;;;;;5038065;28;20271;-60
2021/12/27 01:53:02;;;;;;;4.72;4.13;;;17.40;21.40;;;;;;5037496;28;20232;-60
2021/12/27 01:55:29;;;;;;;4.30;3.90;;;17.30;21.40;;;;;;5046813;28;20244;-60
2021/12/27 01:57:56;;;;;;;4.25;3.85;;;17.30;21.40;;;;;;5058597;28;20232;-60
2021/12/27 02:00:25;;;;;;;4.15;3.75;;;17.30;21.40;;;;;;5058854;28;20205;-60
2021/12/27 02:02:53;;;;;;;4.38;3.97;;;17.20;21.30;;;;;;5058267;28;20224;-59
2021/12/27 02:05:21;;;;;;;4.45;3.83;;;17.20;21.30;;;;;;5058096;28;20236;-60
2021/12/27 02:07:48;;;;;;;4.32;3.92;;;17.20;21.30;;;;;;5057675;28;20224;-59
2021/12/27 02:10:15;;;;;;;4.20;3.80;;;17.20;21.30;;;;;;5057487;28;20205;-59
2021/12/27 02:12:44;;;;;;;4.15;3.65;;;17.20;21.30;;;;;;5057424;28;20247;-59
2021/12/27 02:15:12;;;;;;;4.43;4.03;;;17.20;21.30;;;;;;5056948;28;20231;-60
2021/12/27 02:17:43;;;;;;;4.82;3.97;;;17.20;21.30;;;;;;5057691;28;20209;-59
2021/12/27 02:20:17;;;;;;;4.20;3.80;;;17.10;21.30;;;;;;5057230;28;20219;-60
2021/12/27 02:22:45;;;;;;;3.80;3.50;;;17.10;21.30;;;;;;5037950;28;20201;-60
2021/12/27 02:25:14;;;;;;;4.32;3.88;;;17.10;21.30;;;;;;5037719;28;20201;-59
2021/12/27 02:27:41;;;;;;;4.40;3.72;;;17.10;21.30;;;;;;5037558;28;20209;-60
2021/12/27 02:30:12;;;;;;;4.30;3.88;;;17.10;21.30;;;;;;5037237;28;20213;-59
2021/12/27 02:32:47;;;;;;;4.25;3.85;;;17.00;21.40;;;;;;5037855;28;20472;-60
2021/12/27 02:35:18;;;;;;;4.40;4.00;;;17.00;21.20;;;;;;5036964;28;20209;-59
2021/12/27 02:37:45;;;;;;;4.40;4.00;;;17.00;21.20;;;;;;5037336;28;20206;-59
2021/12/27 02:40:13;;;;;;;4.22;3.63;;;17.00;21.30;;;;;;5036800;28;20212;-60
2021/12/27 02:42:54;;;;;;;3.78;3.47;;;17.00;21.30;;;;;;5036780;28;20197;-60
2021/12/27 02:45:22;;;;;;;4.30;3.90;;;17.00;21.30;;;;;;5037063;28;20205;-59
2021/12/27 02:47:49;;;;;;;4.32;3.92;;;16.90;21.10;;;;;;5036813;28;20487;-60
2021/12/27 02:50:18;;;;;;;4.20;3.80;;;16.90;21.50;;;;;;5036567;28;20213;-60
2021/12/27 02:52:46;;;;;;;4.35;3.95;;;16.90;21.30;;;;;;5037034;28;20229;-59
2021/12/27 02:55:15;;;;;;;4.57;4.15;;;16.90;21.40;;;;;;5035379;28;20241;-60
2021/12/27 02:57:43;;;;;;;4.22;3.83;;;16.90;21.50;;;;;;5037284;28;20198;-59
2021/12/27 03:00:16;;;;;;;4.40;4.00;;;16.80;21.40;;;;;;5036556;28;20237;-60
2021/12/27 03:02:48;;;;;;;4.10;3.70;;;16.80;21.60;;;;;;5035728;28;20267;-59
2021/12/27 03:05:18;;;;;;;4.82;3.78;;;16.80;21.50;;;;;;5036314;28;20240;-59
2021/12/27 03:07:47;;;;;;;4.38;3.97;;;16.70;21.60;;;;;;5036678;28;20221;-59
2021/12/27 03:10:18;;;;;;;4.28;3.88;;;16.70;21.50;;;;;;5036146;28;20206;-59
2021/12/27 03:12:47;;;;;;;4.15;3.75;;;16.70;21.60;;;;;;5036472;28;20225;-59
2021/12/27 03:15:16;;;;;;;4.20;3.80;;;16.70;21.50;;;;;;5046513;28;20227;-59
2021/12/27 03:17:45;;;;;;;4.20;3.80;;;16.70;21.60;;;;;;5056197;28;20204;-60
2021/12/27 03:20:13;;;;;;;4.00;3.60;;;16.70;21.60;;;;;;5056862;28;20500;-60
2021/12/27 03:22:42;;;;;;;4.55;4.15;;;16.70;21.60;;;;;;5056053;28;20220;-59
2021/12/27 03:25:11;;;;;;;4.22;3.83;;;16.60;21.60;;;;;;5055026;28;20500;-59
2021/12/27 03:27:39;;;;;;;3.92;3.60;;;16.70;21.70;;;;;;5055915;28;20235;-60
2021/12/27 03:30:09;;;;;;;4.60;4.07;;;16.60;21.60;;;;;;5056450;28;20228;-59
2021/12/27 03:32:37;;;;;;;4.13;3.72;;;16.60;21.60;;;;;;5055980;28;20232;-59
2021/12/27 03:35:10;;;;;;;4.30;3.90;;;16.50;21.90;;;;;;5055196;28;20216;-59
2021/12/27 03:37:39;;;;;;;4.10;3.80;;;16.50;21.80;;;;;;5055832;28;20236;-59
2021/12/27 03:40:12;;;;;;;4.10;3.67;;;16.50;21.70;;;;;;5055182;28;20212;-59
2021/12/27 03:42:39;;;;;;;4.30;3.90;;;16.50;21.80;;;;;;5035827;28;20197;-60
2021/12/27 03:45:07;;;;;;;4.45;4.03;;;16.50;21.80;;;;;;5035889;28;20217;-59
2021/12/27 03:47:34;;;;;;;3.92;3.60;;;16.50;21.80;;;;;;5035831;28;20213;-59
2021/12/27 03:50:02;;;;;;;3.80;3.40;;;16.50;21.90;;;;;;5035585;28;20224;-59
2021/12/27 03:52:29;;;;;;;4.53;4.10;;;16.40;21.80;;;;;;5035513;28;20605;-59
2021/12/27 03:54:56;;;;;;;4.22;3.83;;;16.40;21.70;;;;;;5036164;28;20479;-59
2021/12/27 03:57:25;;;;;;;4.47;4.07;;;16.40;21.90;;;;;;5035668;28;20213;-59
2021/12/27 04:00:15;;;;;;;3.92;3.53;;;16.40;21.80;;;;;;5035757;28;20201;-59
2021/12/27 04:02:41;;;;;;;4.35;3.80;;;16.30;21.90;;;;;;5035422;28;20297;-59
2021/12/27 04:05:09;;;;;;;4.13;3.72;;;16.30;21.80;;;;;;5035638;28;20221;-60
2021/12/27 04:07:38;;;;;;;4.15;3.75;;;16.30;21.90;;;;;;5035508;28;20268;-59
2021/12/27 04:10:07;;;;;;;4.03;3.63;;;16.30;21.90;;;;;;5035305;28;20272;-59
2021/12/27 04:12:37;;;;;;;4.15;3.85;;;16.30;21.90;;;;;;5035866;28;20234;-59
2021/12/27 04:15:06;;;;;;;4.63;3.65;;;16.30;21.90;;;;;;5035876;28;20630;-60
2021/12/27 04:17:33;;;;;;;4.18;3.75;;;16.30;22.00;;;;;;5036139;28;20209;-59
2021/12/27 04:20:00;;;;;;;4.00;3.60;;;16.20;21.90;;;;;;5035571;28;20201;-58
2021/12/27 04:22:27;;;;;;;4.22;3.83;;;16.20;21.90;;;;;;5037398;28;20538;-59
2021/12/27 04:24:54;;;;;;;3.92;3.53;;;16.20;22.00;;;;;;5036959;28;20500;-59
2021/12/27 04:27:22;;;;;;;3.70;3.40;;;16.20;21.90;;;;;;5035893;28;20213;-58
2021/12/27 04:29:50;;;;;;;4.22;3.80;;;16.20;21.90;;;;;;5035923;28;20213;-58
2021/12/27 04:32:17;;;;;;;3.95;3.55;;;16.20;22.10;;;;;;5036128;28;20229;-59
2021/12/27 04:34:45;;;;;;;4.15;3.75;;;16.10;21.90;;;;;;5044208;28;20612;-59
2021/12/27 04:37:12;;;;;;;4.20;3.80;;;16.10;22.00;;;;;;5055594;28;20208;-59
2021/12/27 04:39:39;;;;;;;4.13;3.67;;;16.10;22.00;;;;;;5055276;28;20212;-59
2021/12/27 04:42:07;;;;;;;4.57;4.10;;;16.10;22.00;;;;;;5056279;28;20204;-58
2021/12/27 04:44:34;;;;;;;3.75;3.38;;;16.10;22.00;;;;;;5056262;28;20205;-59
2021/12/27 04:47:04;;;;;;;3.92;3.50;;;16.10;22.10;;;;;;5055507;28;20521;-59
2021/12/27 04:49:31;;;;;;;3.60;3.28;;;16.10;22.10;;;;;;5056294;28;20212;-59
2021/12/27 04:51:58;;;;;;;4.10;3.70;;;16.00;22.10;;;;;;5055573;28;20205;-58
2021/12/27 04:54:25;;;;;;;4.07;3.67;;;16.00;22.00;;;;;;5055539;28;20232;-58
2021/12/27 04:56:52;;;;;;;3.50;3.20;;;16.00;22.10;;;;;;5015570;28;20206;-59
2021/12/27 04:59:19;;;;;;;4.20;3.80;;;16.00;22.10;;;;;;5015569;28;20206;-59
2021/12/27 05:01:47;;;;;;;4.05;3.65;;;16.00;22.20;;;;;;5014852;28;20202;-59
2021/12/27 05:04:15;;;;;;;3.83;3.45;;;16.00;22.20;;;;;;5015638;28;20202;-59
2021/12/27 05:06:42;;;;;;;4.03;3.60;;;16.00;22.10;;;;;;5015699;28;20217;-58
2021/12/27 05:09:11;;;;;;;4.20;3.72;;;16.00;22.20;;;;;;5016480;28;20690;-59
2021/12/27 05:11:39;;;;;;;4.13;3.72;;;15.90;22.20;;;;;;5016190;28;20206;-59
2021/12/27 05:14:07;;;;;;;4.25;3.80;;;15.90;22.20;;;;;;5016115;28;20645;-58
2021/12/27 05:16:34;;;;;;;4.15;3.75;;;15.90;22.20;;;;;;5015837;28;20210;-58
2021/12/27 05:19:01;;;;;;;3.50;3.13;;;15.90;22.20;;;;;;5019057;28;20225;-59
2021/12/27 05:21:30;;;;;;;4.07;3.67;;;15.90;22.30;;;;;;5020160;28;20221;-59
2021/12/27 05:23:57;;;;;;;3.90;3.50;;;15.80;22.20;;;;;;5020087;28;20202;-59
2021/12/27 05:26:24;;;;;;;4.25;3.85;;;15.80;22.30;;;;;;5019152;28;20215;-60
2021/12/27 05:28:51;;;;;;;4.10;3.58;;;15.80;22.20;;;;;;5003604;28;20222;-59
2021/12/27 05:31:18;;;;;;;4.07;3.67;;;15.80;22.20;;;;;;5000008;28;20510;-59
2021/12/27 05:33:45;;;;;;;4.43;3.35;;;15.80;22.30;;;;;;4999488;28;20242;-58
2021/12/27 05:36:13;;;;;;;4.10;3.70;;;15.80;22.30;;;;;;5000092;28;20226;-59
2021/12/27 05:38:42;;;;;;;4.05;3.65;;;15.80;22.30;;;;;;4999403;28;20234;-59
2021/12/27 05:41:09;;;;;;;4.45;4.05;;;15.80;22.30;;;;;;4999728;28;20203;-58
2021/12/27 05:43:36;;;;;;;4.50;4.10;;;15.80;22.40;;;;;;4999110;28;20207;-59
2021/12/27 05:46:04;;;;;;;3.83;3.53;;;15.70;22.30;;;;;;4998843;28;20234;-59
2021/12/27 05:48:31;;;;;;;3.65;3.35;;;15.70;22.30;;;;;;4999008;28;20215;-59
2021/12/27 05:50:58;;;;;;;4.78;3.90;;;15.70;22.40;;;;;;4999080;28;20206;-59
2021/12/27 05:53:25;;;;;;;4.05;3.65;;;15.70;22.30;;;;;;5002833;28;20648;-59
2021/12/27 05:55:53;;;;;;;4.03;3.63;;;15.70;22.30;;;;;;5041694;28;20814;-59
2021/12/27 05:58:20;;;;;;;4.38;3.97;;;15.70;22.40;;;;;;5060219;28;20588;-59
2021/12/27 06:00:48;;;;;;;4.35;3.95;;;15.70;22.40;;;;;;5059550;28;20592;-59
2021/12/27 06:03:16;;;;;;;3.97;3.58;;;15.70;22.40;;;;;;5058578;28;20197;-60
2021/12/27 06:05:43;;;;;;;4.10;3.70;;;15.60;22.40;;;;;;5059209;28;20205;-59
2021/12/27 06:08:10;;;;;;;3.90;3.60;;;15.60;22.40;;;;;;5058174;28;20205;-59
2021/12/27 06:10:38;;;;;;;4.00;3.60;;;15.60;22.40;;;;;;5058601;28;20212;-59
2021/12/27 06:13:06;;;;;;;4.40;4.00;;;15.60;22.40;;;;;;5058019;28;20225;-58
2021/12/27 06:15:33;;;;;;;4.40;4.00;;;15.60;22.50;;;;;;5058056;28;20212;-59
2021/12/27 06:18:00;;;;;;;4.07;3.67;;;15.50;22.40;;;;;;5058919;28;20197;-59
2021/12/27 06:20:27;;;;;;;4.18;3.78;;;15.60;22.50;;;;;;5058351;28;20204;-58
2021/12/27 06:22:58;;;;;;;4.20;3.80;;;15.50;22.40;;;;;;5057578;28;20208;-58
2021/12/27 06:25:25;;;;;;;3.67;3.38;;;15.50;22.40;;;;;;5058246;28;20216;-58
2021/12/27 06:27:52;;;;;;;4.00;3.63;;;15.50;22.40;;;;;;5056870;28;20225;-58
2021/12/27 06:30:21;;;;;;;4.43;4.03;;;15.50;22.50;;;;;;5057227;28;20216;-59
2021/12/27 06:32:49;;;;;;;4.10;3.70;;;15.50;22.50;;;;;;5057665;28;20531;-59
2021/12/27 06:35:17;;;;;;;4.22;3.70;;;15.40;22.40;;;;;;5057809;28;20234;-59
2021/12/27 06:37:46;;;;;;;4.28;3.60;;;15.40;22.50;;;;;;5057632;28;20212;-59
2021/12/27 06:40:15;;;;;;;4.55;3.90;;;15.40;22.50;;;;;;5057627;28;20212;-59
2021/12/27 06:42:42;;;;;;;3.72;3.42;;;15.40;22.50;;;;;;5057546;28;20212;-59
2021/12/27 06:45:10;;;;;;;4.00;3.60;;;15.40;22.50;;;;;;5056935;28;20208;-58
2021/12/27 06:47:39;;;;;;;4.15;3.75;;;15.40;23.10;;;;;;5057906;28;20205;-59
2021/12/27 06:50:08;;;;;;;4.10;3.70;;;15.40;22.60;;;;;;5057492;28;20468;-59
2021/12/27 06:52:35;;;;;;;4.20;3.80;;;15.40;22.60;;;;;;5057469;28;20217;-59
2021/12/27 06:55:02;;;;;;;4.03;3.63;;;15.30;22.50;;;;;;5056740;28;20229;-59
2021/12/27 06:57:30;;;;;;;4.35;3.95;;;15.30;22.50;;;;;;5056983;28;20205;-59
2021/12/27 06:59:57;;;;;;;4.38;3.97;;;15.30;22.50;;;;;;5056890;28;20197;-59
2021/12/27 07:02:25;;;;;;;4.28;3.88;;;15.30;22.50;;;;;;5056863;28;20205;-58
2021/12/27 07:04:54;;;;;;;3.92;3.55;;;15.30;22.50;;;;;;5056716;28;20504;-58
2021/12/27 07:07:21;;;;;;;4.18;3.78;;;15.30;22.60;;;;;;5057134;28;20216;-59
2021/12/27 07:09:48;;;;;;;4.40;4.00;;;15.30;22.60;;;;;;5056748;28;20616;-59
2021/12/27 07:12:15;;;;;;;4.55;4.00;;;15.20;22.50;;;;;;5056658;28;20217;-59
2021/12/27 07:14:42;;;;;;;4.18;3.78;;;15.30;22.60;;;;;;5056455;28;20220;-59
2021/12/27 07:17:11;;;;;;;4.88;4.38;;;15.20;22.60;;;;;;5056651;28;20209;-59
2021/12/27 07:19:38;;;;;;;3.88;3.55;;;15.20;22.60;;;;;;5057024;28;20205;-59
2021/12/27 07:22:07;;;;;;;4.10;3.70;;;15.20;22.60;;;;;;5053743;28;20212;-58
2021/12/27 07:24:34;;;;;;;4.35;3.95;;;15.20;22.60;;;;;;5056372;28;20201;-59
2021/12/27 07:27:01;;;;;;;4.95;4.30;;;15.20;22.70;;;;;;5056559;28;20603;-58
2021/12/27 07:29:28;;;;;;;4.15;3.75;;;15.20;22.70;;;;;;5056648;28;20231;-58
2021/12/27 07:34:31;;;;;;;4.28;3.88;;;15.20;22.70;;;;;;5501745;22;20504;-57
2021/12/27 07:36:58;;;;;;;4.40;3.78;;;15.10;22.60;;;;;;5034627;28;20229;-57
2021/12/27 07:39:28;;;;;;;4.95;3.63;;;15.20;22.70;;;;;;5034616;28;20232;-58
2021/12/27 07:41:56;;;;;;;4.68;3.47;;;15.10;22.70;;;;;;5034511;28;20608;-58
2021/12/27 07:44:23;;;;;;;3.72;3.42;;;15.10;22.60;;;;;;5034131;28;20540;-57
2021/12/27 07:46:51;;;;;;;3.88;3.47;;;15.10;23.30;;;;;;5034790;28;20206;-58
2021/12/27 07:49:18;;;;;;;3.92;3.60;;;15.10;22.70;;;;;;5034593;28;20205;-58
2021/12/27 07:51:46;;;;;;;4.43;4.03;;;15.10;22.70;;;;;;5034854;28;20213;-58
2021/12/27 07:54:14;;;;;;;4.15;3.75;;;15.10;22.70;;;;;;5034739;28;20241;-58
2021/12/27 07:56:43;;;;;;;3.90;3.58;;;15.10;22.70;;;;;;5034152;28;20205;-58
2021/12/27 07:59:10;;;;;;;4.60;4.20;;;15.00;22.70;;;;;;5033680;28;20589;-58
2021/12/27 08:01:39;;;;;;;3.88;3.55;;;15.00;22.70;;;;;;5033229;28;20205;-58
2021/12/27 08:04:07;;;;;;;4.82;4.28;;;15.00;22.70;;;;;;5033962;28;20202;-58
2021/12/27 08:06:37;;;;;;;4.32;3.92;;;15.00;22.70;;;;;;5034274;28;20201;-58
2021/12/27 08:09:06;;;;;;;4.22;3.83;;;15.00;22.70;;;;;;5035754;28;20205;-58
2021/12/27 08:11:33;;;;;;;3.78;3.47;;;15.00;22.80;;;;;;5036264;28;20209;-58
2021/12/27 08:14:02;;;;;;;4.25;3.65;;;15.00;22.80;;;;;;5032937;28;20226;-58
2021/12/27 08:16:30;;;;;;;4.50;4.10;;;15.00;22.80;;;;;;5033771;28;20698;-58
2021/12/27 08:18:57;;;;;;;4.03;3.72;;;14.90;22.80;;;;;;5034182;28;20615;-58
2021/12/27 08:21:26;;;;;;;5.22;4.07;;;14.90;22.80;;;;;;5034153;28;20205;-58
2021/12/27 08:23:54;;;;;;;4.45;4.05;;;14.90;22.80;;;;;;5035477;28;20201;-58
2021/12/27 08:26:21;;;;;;;4.50;4.10;;;14.90;22.80;;;;;;5035467;28;20198;-58
2021/12/27 08:28:51;;;;;;;4.05;3.67;;;14.90;22.80;;;;;;5034990;28;20224;-58
2021/12/27 08:31:20;;;;;;;4.20;3.80;;;14.90;22.80;;;;;;5034916;28;20301;-58
2021/12/27 08:33:47;;;;;;;4.32;3.88;;;14.90;22.80;;;;;;5034748;28;20529;-58
2021/12/27 08:36:15;;;;;;;4.25;3.85;;;14.90;22.90;;;;;;5034926;28;20224;-58
2021/12/27 08:38:44;;;;;;;3.90;3.55;;;14.90;22.80;;;;;;5035398;28;20718;-58
2021/12/27 08:41:11;;;;;;;4.60;4.00;;;14.90;22.90;;;;;;5035031;28;20309;-58
2021/12/27 08:43:39;;;;;;;4.25;3.85;;;14.80;22.80;;;;;;5034812;28;20201;-58
2021/12/27 08:46:06;;;;;;;4.40;4.00;;;14.80;22.80;;;;;;5035025;28;20210;-58
2021/12/27 08:48:34;;;;;;;4.68;4.28;;;14.80;22.80;;;;;;5034925;28;20205;-58
2021/12/27 08:51:02;;;;;;;4.20;3.80;;;14.80;22.80;;;;;;5034749;28;20217;-58
2021/12/27 08:53:29;;;;;;;4.53;4.13;;;14.80;22.80;;;;;;5038695;28;20213;-59
2021/12/27 08:55:56;;;;;;;4.93;4.47;;;14.80;22.80;;;;;;5038862;28;20204;-59
2021/12/27 08:58:23;;;;;;;4.53;4.13;;;14.80;22.90;;;;;;5038478;28;20201;-58
2021/12/27 09:00:51;;;;;;;4.55;4.15;;;14.80;22.90;;;;;;5038958;28;20835;-58
2021/12/27 09:03:18;;;;;;;5.30;4.30;;;14.80;22.90;;;;;;5038678;28;20210;-58
2021/12/27 09:05:47;;;;;;;4.70;4.30;;;14.80;23.50;;;;;;5038694;28;20601;-58
2021/12/27 09:08:14;;;;;;;4.47;4.07;;;14.80;22.90;;;;;;5038725;28;20209;-59
2021/12/27 09:10:41;;;;;;;4.47;4.07;;;14.70;22.90;;;;;;5038658;28;20205;-58
2021/12/27 09:13:08;;;;;;;4.88;4.38;;;14.70;22.90;;;;;;5038854;28;20212;-57
2021/12/27 09:15:36;;;;;;;4.47;4.07;;;14.70;22.90;;;;;;5038154;28;20636;-58
2021/12/27 09:18:04;;;;;;;4.68;4.28;;;14.70;22.90;;;;;;5034354;28;20590;-58
2021/12/27 09:20:32;;;;;;;4.40;4.00;;;14.70;22.90;;;;;;5017724;28;20225;-58
2021/12/27 09:23:00;;;;;;;4.93;4.18;;;14.70;22.90;;;;;;5018125;28;20202;-58
2021/12/27 09:25:28;;;;;;;5.75;4.50;;;14.70;23.20;;;;;;5018018;28;20202;-58
2021/12/27 09:27:55;;;;;;;4.63;4.22;;;14.70;23.20;;;;;;5017704;28;20218;-58
2021/12/27 09:30:22;;;;;;;4.45;4.05;;;14.70;23.00;;;;;;5018154;28;20206;-58
2021/12/27 09:32:50;;;;;;;5.13;4.30;;;14.70;23.10;;;;;;5018365;28;20205;-66
2021/12/27 09:35:17;;;;;;;4.75;4.20;;;14.60;23.00;;;;;;5018351;28;20333;-58
2021/12/27 09:37:44;;;;;;;5.15;4.07;;;14.60;23.00;;;;;;5018459;28;20201;-58
2021/12/27 09:40:14;;;;;;;4.32;3.92;;;14.60;22.90;;;;;;5018271;28;20202;-58
2021/12/27 09:42:41;;;;;;;4.75;4.35;;;14.60;22.90;;;;;;5017842;28;20217;-58
2021/12/27 09:45:09;;;;;;;4.40;4.00;;;14.60;23.00;;;;;;5017221;28;20198;-58
2021/12/27 09:47:37;;;;;;;4.85;4.35;;;14.60;23.00;;;;;;5017492;28;20210;-58
2021/12/27 09:50:06;;;;;;;4.72;3.95;;;14.60;22.90;;;;;;5028679;28;20252;-58
2021/12/27 09:52:33;;;;;;;5.50;4.03;;;14.60;22.90;;;;;;5034748;28;20216;-58
2021/12/27 09:55:04;;;;;;;4.80;4.25;;;14.60;23.00;;;;;;5035128;28;20261;-59
2021/12/27 09:57:33;;;;;;;4.85;4.32;;;14.60;23.00;;;;;;5033608;28;20213;-58
2021/12/27 10:00:00;;;;;;;4.55;4.15;;;14.60;23.00;;;;;;5034860;28;20304;-58
2021/12/27 10:02:28;;;;;;;6.32;5.72;;;14.60;23.10;;;;;;5034930;28;20209;-58
2021/12/27 10:04:55;;;;;;;16.08;14.43;;;14.60;23.00;;;;;;5034168;28;20205;-58
2021/12/27 10:07:22;;;;;;;12.65;11.40;;;14.60;23.10;;;;;;5034528;28;20217;-58
2021/12/27 10:09:54;;;;;;;11.75;10.65;;;14.50;23.00;;;;;;5035805;28;20458;-58
2021/12/27 10:12:23;;;;;;;11.50;10.40;;;14.60;23.10;;;;;;5035895;28;20298;-58
2021/12/27 10:14:57;;;;;;;14.80;13.40;;;14.60;23.10;;;;;;5035204;28;20585;-58
2021/12/27 10:17:24;;;;;;;33.25;29.95;;;14.60;23.10;;;;;;5036631;28;20220;-60
2021/12/27 10:19:52;;;;;;;25.42;22.90;;;14.60;23.10;;;;;;5035716;28;20518;-60
2021/12/27 10:22:20;;;;;;;23.88;21.52;;;14.60;23.50;;;;;;5035166;28;20212;-61
2021/12/27 10:24:50;;;;;;;23.85;21.35;;;14.60;24.00;;;;;;5034057;28;20202;-59
2021/12/27 10:27:19;;;;;;;20.92;18.83;;;14.70;24.20;;;;;;5034856;28;20216;-58
2021/12/27 10:29:46;;;;;;;20.10;18.05;;;14.70;24.20;;;;;;5034534;28;20202;-58
2021/12/27 10:32:16;;;;;;;18.55;16.65;;;14.70;24.40;;;;;;5034299;28;20346;-59
2021/12/27 10:34:46;;;;;;;19.30;16.58;;;14.80;24.60;;;;;;5020777;28;20234;-58
2021/12/27 10:37:17;;;;;;;16.90;15.20;;;14.80;24.70;;;;;;5013609;28;20213;-58
2021/12/27 10:39:47;;;;;;;17.98;15.48;;;14.80;24.90;;;;;;5018894;28;20209;-59
2021/12/27 10:42:18;;;;;;;15.15;13.65;;;14.80;24.70;;;;;;5019568;28;20213;-58
2021/12/27 10:44:46;;;;;;;14.38;12.98;;;14.90;24.80;;;;;;5014914;28;20202;-58
2021/12/27 10:47:34;;;;;;;14.27;12.73;;;14.90;24.70;;;;;;5013526;28;20353;-59
2021/12/27 10:50:04;;;;;;;13.02;11.73;;;15.00;24.90;;;;;;5015165;28;20209;-58
2021/12/27 10:52:44;;;;;;;13.23;11.93;;;15.00;25.00;;;;;;5016116;28;20206;-59
2021/12/27 10:55:11;;;;;;;12.50;11.30;;;15.00;25.00;;;;;;5016469;28;20237;-59
2021/12/27 10:57:38;;;;;;;12.10;10.88;;;15.10;25.10;;;;;;5015578;28;20220;-59
2021/12/27 11:00:27;;;;;;;11.15;10.05;;;15.10;25.00;;;;;;5015752;28;20214;-59
2021/12/27 11:02:58;;;;;;;10.98;9.88;;;15.20;25.20;;;;;;5015105;28;20214;-58
2021/12/27 11:05:27;;;;;;;10.55;9.52;;;15.20;25.20;;;;;;5014559;28;20202;-59
2021/12/27 11:07:59;;;;;;;10.60;9.60;;;15.20;25.20;;;;;;5015399;28;20206;-59
2021/12/27 11:10:27;;;;;;;9.57;8.65;;;15.20;25.20;;;;;;4999806;28;20310;-58
2021/12/27 11:12:59;;;;;;;9.27;8.38;;;15.30;25.20;;;;;;4996002;28;20218;-59
2021/12/27 11:15:27;;;;;;;11.77;8.77;;;15.30;25.00;;;;;;4997139;28;20325;-59
2021/12/27 11:17:56;;;;;;;9.55;8.65;;;15.30;25.00;;;;;;4995572;28;20199;-59
2021/12/27 11:20:23;;;;;;;9.10;8.10;;;15.30;24.90;;;;;;4995305;28;20207;-59
2021/12/27 11:22:54;;;;;;;8.60;7.80;;;15.30;24.90;;;;;;4995365;28;20214;-59
2021/12/27 11:25:27;;;;;;;8.95;7.70;;;15.40;24.90;;;;;;4995147;28;20210;-59
2021/12/27 11:27:55;;;;;;;8.77;7.88;;;15.40;24.90;;;;;;4995581;28;20203;-58
2021/12/27 11:30:24;;;;;;;8.07;7.28;;;15.40;25.10;;;;;;4995996;28;20206;-59
2021/12/27 11:33:12;;;;;;;9.07;7.30;;;15.40;24.90;;;;;;4995612;28;20206;-59
2021/12/27 11:35:57;;;;;;;7.97;7.18;;;15.40;25.00;;;;;;4995764;28;20254;-59
2021/12/27 11:38:31;;;;;;;7.53;6.72;;;15.40;25.00;;;;;;4997220;28;20250;-60
2021/12/27 11:40:59;;;;;;;9.60;6.88;;;15.50;25.30;;;;;;4995364;28;20475;-59
2021/12/27 11:43:48;;;;;;;8.63;6.85;;;15.50;25.20;;;;;;4995495;28;20233;-59
2021/12/27 11:46:15;;;;;;;7.85;6.60;;;15.50;25.20;;;;;;4995272;28;20235;-59
2021/12/27 11:48:48;;;;;;;7.50;6.65;;;15.60;25.30;;;;;;5015161;28;20206;-58
2021/12/27 11:51:16;;;;;;;7.30;6.55;;;15.60;25.30;;;;;;5015087;28;20829;-60
2021/12/27 11:53:50;;;;;;;7.40;6.70;;;15.60;25.20;;;;;;5014576;28;20198;-59
2021/12/27 11:56:36;;;;;;;10.70;9.65;;;15.60;25.10;;;;;;5013809;28;20234;-59
2021/12/27 11:59:31;;;;;;;11.20;10.20;;;15.60;25.00;;;;;;5014565;28;20213;-58
2021/12/27 12:02:01;;;;;;;10.90;9.80;;;15.70;25.10;;;;;;5014609;28;20202;-58
2021/12/27 12:04:44;;;;;;;10.88;9.40;;;15.70;25.10;;;;;;5014706;28;20206;-58
2021/12/27 12:07:32;;;;;;;10.35;9.30;;;15.80;25.20;;;;;;5006623;28;20203;-58
2021/12/27 12:10:00;;;;;;;9.88;8.90;;;15.80;25.20;;;;;;4994775;28;20203;-59
2021/12/27 12:12:28;;;;;;;9.93;9.02;;;15.90;25.30;;;;;;4994233;28;20209;-60
2021/12/27 12:14:57;;;;;;;10.57;8.38;;;15.90;25.50;;;;;;4994690;28;20227;-59
2021/12/27 12:17:37;;;;;;;9.20;8.15;;;15.90;25.40;;;;;;5003465;28;20719;-59
2021/12/27 12:20:07;;;;;;;8.80;7.93;;;16.00;25.50;;;;;;5013638;28;20610;-59
2021/12/27 12:22:37;;;;;;;8.60;7.80;;;16.00;25.70;;;;;;4998439;28;20206;-59
2021/12/27 12:25:12;;;;;;;8.63;7.72;;;16.00;25.60;;;;;;4993906;28;20486;-58
2021/12/27 12:27:55;;;;;;;8.02;7.32;;;16.10;25.60;;;;;;5004378;28;20300;-59
2021/12/27 12:30:25;;;;;;;8.25;7.45;;;16.10;25.50;;;;;;5014043;28;20371;-59
2021/12/27 12:33:03;;;;;;;8.02;7.32;;;16.10;25.00;;;;;;5010723;28;20214;-59
2021/12/27 12:35:38;;;;;;;9.70;7.47;;;16.20;25.20;;;;;;5027381;28;20229;-59
2021/12/27 12:38:19;;;;;;;7.97;7.18;;;16.20;25.40;;;;;;5028217;28;20204;-59
2021/12/27 12:40:58;;;;;;;8.48;7.60;;;16.20;25.40;;;;;;5033857;28;20216;-59
2021/12/27 12:43:36;;;;;;;7.72;7.00;;;16.20;25.30;;;;;;5033417;28;20556;-60
2021/12/27 12:46:19;;;;;;;7.22;6.63;;;16.30;25.30;;;;;;5033323;28;20213;-59
2021/12/27 12:48:57;;;;;;;7.97;7.18;;;16.30;25.30;;;;;;5033466;28;20209;-59
2021/12/27 12:51:37;;;;;;;7.57;6.88;;;16.30;25.40;;;;;;5031821;28;20213;-59
2021/12/27 12:54:08;;;;;;;7.85;7.07;;;16.40;25.90;;;;;;5032480;28;20227;-59
2021/12/27 12:56:37;;;;;;;7.50;6.78;;;16.40;25.30;;;;;;5033136;28;20325;-59
2021/12/27 12:59:05;;;;;;;7.57;6.80;;;16.40;25.20;;;;;;5046146;28;20229;-59